createdAt,value
2017-05-14T00:00:16.738Z,61.86
2017-05-14T00:02:46.327Z,66.78
2017-05-14T00:05:17.049Z,59.46
2017-05-14T00:07:46.094Z,60.06
2017-05-14T00:10:15.942Z,63.00
2017-05-14T00:12:45.010Z,66.64
2017-05-14T00:15:14.834Z,65.04
2017-05-14T00:17:43.880Z,64.40
2017-05-14T00:20:13.035Z,77.40
2017-05-14T00:22:42.112Z,66.16
2017-05-14T00:25:11.898Z,68.50
2017-05-14T00:27:40.969Z,64.84
2017-05-14T00:30:10.134Z,65.38
2017-05-14T00:32:39.217Z,61.38
2017-05-14T00:35:09.059Z,64.24
2017-05-14T00:37:38.230Z,59.78
2017-05-14T00:40:08.034Z,69.04
2017-05-14T00:42:37.847Z,69.94
2017-05-14T00:45:07.658Z,66.78
2017-05-14T00:47:36.756Z,70.98
2017-05-14T00:50:06.551Z,72.56
2017-05-14T00:52:35.619Z,66.08
2017-05-14T00:55:04.719Z,65.84
2017-05-14T00:57:33.785Z,67.36
2017-05-14T01:00:02.838Z,67.18
2017-05-14T01:02:31.926Z,65.56
2017-05-14T01:05:00.973Z,65.36
2017-05-14T01:07:30.142Z,64.90
2017-05-14T01:09:59.958Z,70.22
2017-05-14T01:12:29.767Z,70.46
2017-05-14T01:14:59.591Z,67.72
2017-05-14T01:17:29.506Z,72.22
2017-05-14T01:19:59.285Z,70.24
2017-05-14T01:22:28.358Z,72.42
2017-05-14T01:24:57.396Z,72.98
2017-05-14T01:27:27.326Z,67.82
2017-05-14T01:29:57.116Z,69.44
2017-05-14T01:32:26.175Z,67.34
2017-05-14T01:34:55.231Z,66.68
2017-05-14T01:37:24.316Z,64.78
2017-05-14T01:39:54.099Z,72.54
2017-05-14T01:42:23.214Z,67.70
2017-05-14T01:44:53.014Z,62.16
2017-05-14T01:47:22.143Z,68.08
2017-05-14T01:49:51.190Z,78.14
2017-05-14T01:52:20.322Z,76.36
2017-05-14T01:54:50.133Z,74.54
2017-05-14T01:57:19.959Z,74.56
2017-05-14T01:59:49.769Z,69.00
2017-05-14T02:02:19.565Z,74.52
2017-05-14T02:04:49.403Z,73.66
2017-05-14T02:07:18.441Z,78.28
2017-05-14T02:09:47.501Z,75.60
2017-05-14T02:12:16.549Z,71.84
2017-05-14T02:14:45.623Z,66.78
2017-05-14T02:17:14.663Z,75.24
2017-05-14T02:19:44.573Z,79.98
2017-05-14T02:22:13.830Z,77.42
2017-05-14T02:24:43.513Z,80.86
2017-05-14T02:27:13.188Z,77.88
2017-05-14T02:29:43.039Z,70.24
2017-05-14T02:32:12.104Z,72.82
2017-05-14T02:34:41.919Z,73.82
2017-05-14T02:37:11.705Z,70.46
2017-05-14T02:39:40.767Z,87.98
2017-05-14T02:42:09.913Z,93.62
2017-05-14T02:44:38.983Z,90.68
2017-05-14T02:47:08.033Z,92.70
2017-05-14T02:49:37.119Z,87.74
2017-05-14T02:52:06.930Z,82.22
2017-05-14T02:54:36.742Z,81.64
2017-05-14T02:57:06.549Z,85.38
2017-05-14T02:59:36.364Z,81.58
2017-05-14T03:02:06.151Z,81.50
2017-05-14T03:04:35.267Z,74.60
2017-05-14T03:07:05.085Z,71.18
2017-05-14T03:09:34.992Z,71.52
2017-05-14T03:12:04.035Z,68.72
2017-05-14T03:14:33.201Z,68.30
2017-05-14T03:17:02.997Z,72.64
2017-05-14T03:19:32.809Z,66.34
2017-05-14T03:22:02.612Z,71.84
2017-05-14T03:24:31.665Z,70.44
2017-05-14T03:27:00.728Z,75.00
2017-05-14T03:29:30.643Z,84.50
2017-05-14T03:32:00.428Z,80.62
2017-05-14T03:34:29.500Z,72.20
2017-05-14T03:36:58.536Z,76.76
2017-05-14T03:39:27.697Z,67.84
2017-05-14T03:41:56.737Z,73.98
2017-05-14T03:44:25.818Z,65.94
2017-05-14T03:46:55.641Z,69.72
2017-05-14T03:49:25.447Z,69.06
2017-05-14T03:51:55.246Z,71.74
2017-05-14T03:54:24.759Z,65.76
2017-05-14T03:56:54.581Z,68.56
2017-05-14T03:59:24.383Z,64.46
2017-05-14T04:01:54.240Z,68.36
2017-05-14T04:04:23.303Z,64.70
2017-05-14T04:06:53.217Z,65.98
2017-05-14T04:09:23.025Z,63.52
2017-05-14T04:11:52.830Z,64.22
2017-05-14T04:14:26.951Z,71.06
2017-05-14T04:16:59.147Z,71.56
2017-05-14T04:19:33.460Z,72.08
2017-05-14T04:22:03.293Z,70.96
2017-05-14T04:24:33.120Z,70.04
2017-05-14T04:27:02.193Z,67.58
2017-05-14T04:29:31.253Z,73.16
2017-05-14T04:32:00.307Z,74.88
2017-05-14T04:34:30.121Z,72.88
2017-05-14T04:36:59.945Z,73.92
2017-05-14T04:39:29.005Z,75.44
2017-05-14T04:41:58.061Z,76.90
2017-05-14T04:44:27.217Z,77.14
2017-05-14T04:46:57.021Z,75.10
2017-05-14T04:49:26.851Z,70.48
2017-05-14T04:51:55.933Z,75.64
2017-05-14T04:54:25.739Z,73.42
2017-05-14T04:56:54.801Z,74.72
2017-05-14T04:59:23.878Z,73.22
2017-05-14T05:01:52.942Z,75.52
2017-05-14T05:04:22.853Z,72.00
2017-05-14T05:06:52.757Z,72.44
2017-05-14T05:09:22.570Z,70.14
2017-05-14T05:11:52.403Z,72.74
2017-05-14T05:14:21.529Z,67.42
2017-05-14T05:16:51.346Z,66.48
2017-05-14T05:19:22.152Z,64.36
2017-05-14T05:21:51.273Z,71.64
2017-05-14T05:24:21.086Z,67.38
2017-05-14T05:26:50.878Z,67.88
2017-05-14T05:29:19.943Z,64.32
2017-05-14T05:31:49.093Z,64.10
2017-05-14T05:34:19.005Z,65.04
2017-05-14T05:36:48.813Z,64.46
2017-05-14T05:39:18.615Z,65.72
2017-05-14T05:41:47.661Z,61.74
2017-05-14T05:44:16.817Z,63.92
2017-05-14T05:46:46.618Z,66.86
2017-05-14T05:49:15.692Z,71.38
2017-05-14T05:51:44.836Z,65.44
2017-05-14T05:54:14.759Z,68.94
2017-05-14T05:56:43.815Z,63.54
2017-05-14T05:59:12.884Z,59.56
2017-05-14T06:01:41.948Z,59.04
2017-05-14T06:04:11.015Z,63.70
2017-05-14T06:06:40.134Z,60.32
2017-05-14T06:09:09.202Z,64.22
2017-05-14T06:11:38.309Z,62.82
2017-05-14T06:14:08.238Z,61.62
2017-05-14T06:16:38.042Z,59.76
2017-05-14T06:19:07.850Z,57.98
2017-05-14T06:21:37.663Z,57.44
2017-05-14T06:24:06.773Z,56.86
2017-05-14T06:26:35.876Z,58.82
2017-05-14T06:29:05.666Z,54.54
2017-05-14T06:31:35.498Z,54.96
2017-05-14T06:34:04.603Z,53.58
2017-05-14T06:36:33.673Z,54.32
2017-05-14T06:39:04.038Z,52.70
2017-05-14T06:41:33.107Z,54.46
2017-05-14T06:44:02.934Z,54.76
2017-05-14T06:46:31.998Z,51.26
2017-05-14T06:49:01.104Z,53.20
2017-05-14T06:51:30.928Z,52.42
2017-05-14T06:53:59.966Z,55.10
2017-05-14T06:56:29.113Z,53.52
2017-05-14T06:58:58.170Z,50.76
2017-05-14T07:01:27.228Z,49.96
2017-05-14T07:03:56.393Z,47.58
2017-05-14T07:06:26.308Z,44.12
2017-05-14T07:08:56.117Z,45.24
2017-05-14T07:11:25.203Z,44.44
2017-05-14T07:13:54.274Z,37.96
2017-05-14T07:16:23.409Z,42.36
2017-05-14T07:18:53.220Z,42.58
2017-05-14T07:21:23.034Z,41.28
2017-05-14T07:23:52.836Z,41.58
2017-05-14T07:26:21.889Z,42.04
2017-05-14T07:28:50.950Z,40.82
2017-05-14T07:31:20.046Z,40.54
2017-05-14T07:33:49.858Z,38.10
2017-05-14T07:36:18.986Z,35.08
2017-05-14T07:38:48.901Z,33.40
2017-05-14T07:41:18.721Z,31.68
2017-05-14T07:43:47.923Z,31.04
2017-05-14T07:46:17.017Z,31.46
2017-05-14T07:48:46.088Z,29.86
2017-05-14T07:51:15.138Z,30.62
2017-05-14T07:53:44.207Z,27.88
2017-05-14T07:56:13.301Z,29.48
2017-05-14T07:58:43.107Z,28.84
2017-05-14T08:01:12.893Z,28.10
2017-05-14T08:03:42.009Z,27.38
2017-05-14T08:06:11.793Z,23.68
2017-05-14T08:08:40.853Z,23.24
2017-05-14T08:11:09.912Z,23.82
2017-05-14T08:13:39.715Z,22.42
2017-05-14T08:16:08.814Z,20.02
2017-05-14T08:18:38.642Z,19.78
2017-05-14T08:21:07.702Z,19.10
2017-05-14T08:23:37.496Z,17.96
2017-05-14T08:26:06.625Z,16.10
2017-05-14T08:28:36.414Z,14.52
2017-05-14T08:31:05.473Z,15.78
2017-05-14T08:33:34.548Z,16.34
2017-05-14T08:36:03.613Z,13.72
2017-05-14T08:38:33.457Z,7.68
2017-05-14T08:41:02.512Z,8.68
2017-05-14T08:43:31.553Z,11.92
2017-05-14T08:46:00.747Z,11.74
2017-05-14T08:48:30.789Z,10.82
2017-05-14T08:51:00.353Z,10.40
2017-05-14T08:53:29.430Z,11.48
2017-05-14T08:55:59.341Z,9.66
2017-05-14T08:58:28.425Z,10.66
2017-05-14T09:00:57.487Z,10.08
2017-05-14T09:03:26.524Z,18.12
2017-05-14T09:05:58.834Z,10.24
2017-05-14T09:08:28.715Z,8.64
2017-05-14T09:10:57.828Z,10.22
2017-05-14T09:13:27.726Z,9.38
2017-05-14T09:15:56.800Z,9.38
2017-05-14T09:18:25.829Z,8.68
2017-05-14T09:20:55.627Z,8.10
2017-05-14T09:23:24.830Z,7.84
2017-05-14T09:25:53.982Z,7.04
2017-05-14T09:28:23.986Z,7.52
2017-05-14T09:30:53.035Z,7.26
2017-05-14T09:33:22.062Z,8.72
2017-05-14T09:35:51.808Z,8.48
2017-05-14T09:38:20.876Z,7.64
2017-05-14T09:40:50.054Z,7.42
2017-05-14T09:43:19.956Z,7.74
2017-05-14T09:45:49.061Z,8.38
2017-05-14T09:48:18.838Z,8.84
2017-05-14T09:50:47.877Z,8.40
2017-05-14T09:53:16.924Z,9.18
2017-05-14T09:55:46.063Z,10.40
2017-05-14T09:58:15.843Z,9.02
2017-05-14T10:00:44.905Z,10.08
2017-05-14T10:03:13.949Z,10.04
2017-05-14T10:05:43.767Z,10.38
2017-05-14T10:08:13.573Z,9.72
2017-05-14T10:10:43.381Z,10.00
2017-05-14T10:13:12.438Z,9.22
2017-05-14T10:15:41.607Z,8.48
2017-05-14T10:18:10.673Z,7.00
2017-05-14T10:20:39.737Z,6.06
2017-05-14T10:23:08.869Z,7.78
2017-05-14T10:25:37.910Z,9.08
2017-05-14T10:28:06.946Z,8.32
2017-05-14T10:30:35.996Z,9.86
2017-05-14T10:33:05.053Z,8.52
2017-05-14T10:35:34.899Z,8.60
2017-05-14T10:38:04.702Z,8.06
2017-05-14T10:40:33.764Z,8.62
2017-05-14T10:43:03.554Z,8.66
2017-05-14T10:45:32.683Z,8.74
2017-05-14T10:48:02.494Z,9.86
2017-05-14T10:50:32.307Z,10.46
2017-05-14T10:53:02.113Z,9.72
2017-05-14T10:55:31.208Z,10.32
2017-05-14T10:58:01.022Z,9.06
2017-05-14T11:00:30.118Z,9.10
2017-05-14T11:02:59.213Z,9.32
2017-05-14T11:05:28.327Z,9.08
2017-05-14T11:07:58.111Z,8.10
2017-05-14T11:10:27.221Z,8.58
2017-05-14T11:12:57.039Z,8.98
2017-05-14T11:15:26.077Z,9.06
2017-05-14T11:17:55.126Z,9.22
2017-05-14T11:20:24.169Z,8.54
2017-05-14T11:22:53.230Z,9.82
2017-05-14T11:25:23.021Z,8.96
2017-05-14T11:27:52.082Z,7.94
2017-05-14T11:30:21.223Z,6.64
2017-05-14T11:32:51.023Z,7.78
2017-05-14T11:35:20.126Z,6.88
2017-05-14T11:37:49.941Z,8.02
2017-05-14T11:40:19.748Z,6.14
2017-05-14T11:42:48.845Z,5.90
2017-05-14T11:45:18.638Z,5.20
2017-05-14T11:47:47.740Z,6.96
2017-05-14T11:50:16.850Z,9.50
2017-05-14T11:52:46.641Z,5.78
2017-05-14T11:55:15.727Z,6.28
2017-05-14T11:57:44.841Z,5.76
2017-05-14T12:00:13.887Z,6.88
2017-05-14T12:02:43.033Z,5.36
2017-05-14T12:05:12.073Z,4.82
2017-05-14T12:07:41.223Z,5.50
2017-05-14T12:10:10.306Z,5.22
2017-05-14T12:12:39.413Z,4.16
2017-05-14T12:15:08.524Z,3.62
2017-05-14T12:17:38.332Z,3.66
2017-05-14T12:20:08.109Z,2.86
2017-05-14T12:22:37.171Z,3.80
2017-05-14T12:25:06.235Z,3.14
2017-05-14T12:27:36.021Z,7.24
2017-05-14T12:30:05.062Z,4.42
2017-05-14T12:32:34.109Z,8.44
2017-05-14T12:35:03.540Z,4.32
2017-05-14T12:37:33.449Z,4.18
2017-05-14T12:40:02.549Z,4.36
2017-05-14T12:42:32.361Z,3.72
2017-05-14T12:45:02.134Z,3.36
2017-05-14T12:47:31.165Z,4.12
2017-05-14T12:50:00.969Z,3.88
2017-05-14T12:52:29.993Z,3.78
2017-05-14T12:54:59.175Z,4.20
2017-05-14T12:57:28.980Z,4.32
2017-05-14T12:59:58.024Z,4.04
2017-05-14T13:02:27.057Z,4.42
2017-05-14T13:04:56.101Z,4.18
2017-05-14T13:07:25.154Z,4.88
2017-05-14T13:09:54.276Z,5.12
2017-05-14T13:12:24.083Z,4.94
2017-05-14T13:14:53.882Z,4.86
2017-05-14T13:17:22.923Z,5.70
2017-05-14T13:19:52.105Z,4.90
2017-05-14T13:22:21.169Z,5.70
2017-05-14T13:24:50.251Z,6.28
2017-05-14T13:27:19.282Z,6.84
2017-05-14T13:29:49.074Z,7.72
2017-05-14T13:32:18.194Z,7.78
2017-05-14T13:34:48.013Z,8.34
2017-05-14T13:37:17.108Z,9.34
2017-05-14T13:39:46.916Z,11.36
2017-05-14T13:42:16.719Z,10.76
2017-05-14T13:44:45.793Z,12.44
2017-05-14T13:47:14.913Z,10.82
2017-05-14T13:49:44.750Z,10.14
2017-05-14T13:52:14.657Z,9.46
2017-05-14T13:54:44.472Z,10.60
2017-05-14T13:57:14.377Z,11.52
2017-05-14T13:59:44.181Z,10.70
2017-05-14T14:02:13.998Z,10.38
2017-05-14T14:04:43.795Z,11.28
2017-05-14T14:07:12.918Z,10.72
2017-05-14T14:09:42.725Z,10.10
2017-05-14T14:12:12.546Z,11.22
2017-05-14T14:14:42.334Z,12.24
2017-05-14T14:17:11.436Z,11.70
2017-05-14T14:19:40.546Z,11.64
2017-05-14T14:22:10.452Z,11.64
2017-05-14T14:24:40.255Z,12.16
2017-05-14T14:27:09.323Z,12.82
2017-05-14T14:29:38.366Z,12.96
2017-05-14T14:32:08.287Z,12.12
2017-05-14T14:34:38.094Z,11.14
2017-05-14T14:37:08.011Z,10.10
2017-05-14T14:39:37.794Z,9.82
2017-05-14T14:42:06.921Z,10.40
2017-05-14T14:44:36.714Z,9.00
2017-05-14T14:47:05.832Z,7.58
2017-05-14T14:49:35.633Z,8.02
2017-05-14T14:52:04.689Z,6.80
2017-05-14T14:54:33.721Z,6.74
2017-05-14T14:57:02.774Z,6.68
2017-05-14T14:59:31.823Z,6.74
2017-05-14T15:02:01.605Z,6.24
2017-05-14T15:04:30.637Z,6.30
2017-05-14T15:07:00.445Z,7.48
2017-05-14T15:09:30.254Z,5.12
2017-05-14T15:12:00.057Z,5.18
2017-05-14T15:14:29.102Z,4.66
2017-05-14T15:16:58.145Z,4.70
2017-05-14T15:19:27.242Z,4.44
2017-05-14T15:21:56.344Z,5.26
2017-05-14T15:24:26.122Z,4.46
2017-05-14T15:26:55.248Z,4.88
2017-05-14T15:29:25.066Z,5.34
2017-05-14T15:31:54.133Z,4.12
2017-05-14T15:34:23.193Z,5.00
2017-05-14T15:36:52.248Z,5.30
2017-05-14T15:39:21.345Z,4.42
2017-05-14T15:41:50.386Z,5.12
2017-05-14T15:44:19.539Z,5.44
2017-05-14T15:46:49.349Z,5.10
2017-05-14T15:49:18.460Z,4.60
2017-05-14T15:51:48.237Z,4.76
2017-05-14T15:54:17.314Z,3.64
2017-05-14T15:56:46.341Z,3.54
2017-05-14T15:59:15.402Z,4.36
2017-05-14T16:01:44.432Z,3.90
2017-05-14T16:04:13.493Z,4.40
2017-05-14T16:06:42.554Z,5.82
2017-05-14T16:09:11.629Z,6.20
2017-05-14T16:11:41.433Z,5.86
2017-05-14T16:14:10.489Z,6.58
2017-05-14T16:16:39.533Z,6.36
2017-05-14T16:19:09.309Z,7.66
2017-05-14T16:21:38.357Z,5.62
2017-05-14T16:24:07.421Z,7.00
2017-05-14T16:26:36.624Z,7.48
2017-05-14T16:29:05.649Z,6.42
2017-05-14T16:31:34.725Z,6.26
2017-05-14T16:34:03.890Z,5.86
2017-05-14T16:36:33.013Z,6.80
2017-05-14T16:39:02.050Z,6.16
2017-05-14T16:41:31.207Z,7.00
2017-05-14T16:44:00.236Z,6.20
2017-05-14T16:46:29.325Z,5.74
2017-05-14T16:48:58.397Z,4.74
2017-05-14T16:51:27.449Z,5.40
2017-05-14T16:53:56.490Z,10.42
2017-05-14T16:56:26.304Z,4.04
2017-05-14T16:58:56.078Z,4.86
2017-05-14T17:01:25.202Z,3.94
2017-05-14T17:03:54.310Z,4.02
2017-05-14T17:06:24.213Z,3.88
2017-05-14T17:08:53.308Z,4.22
2017-05-14T17:11:22.451Z,3.80
2017-05-14T17:13:51.585Z,4.04
2017-05-14T17:16:20.708Z,3.46
2017-05-14T17:18:49.773Z,3.78
2017-05-14T17:21:18.895Z,3.20
2017-05-14T17:23:47.940Z,3.40
2017-05-14T17:26:17.782Z,3.76
2017-05-14T17:28:46.901Z,3.54
2017-05-14T17:31:16.675Z,3.22
2017-05-14T17:33:45.729Z,3.14
2017-05-14T17:36:14.800Z,3.08
2017-05-14T17:38:43.844Z,2.88
2017-05-14T17:41:12.884Z,4.38
2017-05-14T17:43:41.933Z,3.10
2017-05-14T17:46:10.979Z,3.38
2017-05-14T17:48:40.027Z,3.40
2017-05-14T17:51:09.093Z,3.40
2017-05-14T17:53:39.049Z,3.52
2017-05-14T17:56:08.085Z,3.68
2017-05-14T17:58:37.129Z,3.20
2017-05-14T18:01:06.162Z,3.08
2017-05-14T18:03:35.269Z,4.24
2017-05-14T18:06:04.311Z,4.20
2017-05-14T18:08:33.531Z,6.72
2017-05-14T18:11:02.621Z,3.60
2017-05-14T18:13:31.899Z,3.60
2017-05-14T18:16:00.967Z,3.14
2017-05-14T18:18:30.753Z,3.80
2017-05-14T18:20:59.871Z,8.48
2017-05-14T18:23:29.667Z,9.42
2017-05-14T18:25:58.699Z,3.92
2017-05-14T18:28:27.763Z,4.30
2017-05-14T18:30:56.820Z,4.78
2017-05-14T18:33:25.871Z,4.02
2017-05-14T18:35:55.676Z,3.78
2017-05-14T18:38:25.496Z,3.16
2017-05-14T18:40:55.266Z,3.86
2017-05-14T18:43:24.402Z,3.80
2017-05-14T18:45:54.207Z,4.22
2017-05-14T18:48:23.983Z,4.10
2017-05-14T18:50:53.038Z,4.36
2017-05-14T18:53:22.063Z,4.50
2017-05-14T18:55:51.197Z,4.34
2017-05-14T18:58:20.306Z,6.58
2017-05-14T19:00:50.132Z,4.40
2017-05-14T19:03:19.897Z,4.78
2017-05-14T19:05:49.017Z,6.42
2017-05-14T19:08:18.052Z,7.60
2017-05-14T19:10:47.092Z,8.96
2017-05-14T19:13:16.191Z,6.92
2017-05-14T19:15:45.277Z,7.80
2017-05-14T19:18:14.407Z,8.96
2017-05-14T19:20:44.306Z,7.32
2017-05-14T19:23:13.330Z,9.76
2017-05-14T19:25:42.423Z,9.60
2017-05-14T19:28:11.538Z,8.92
2017-05-14T19:30:40.601Z,9.32
2017-05-14T19:33:09.665Z,9.22
2017-05-14T19:35:38.792Z,19.24
2017-05-14T19:38:07.869Z,16.94
2017-05-14T19:40:37.666Z,8.48
2017-05-14T19:43:06.697Z,11.40
2017-05-14T19:45:35.765Z,11.40
2017-05-14T19:48:05.585Z,11.34
2017-05-14T19:50:35.400Z,8.44
2017-05-14T19:53:05.232Z,8.46
2017-05-14T19:55:34.304Z,8.58
2017-05-14T19:58:04.081Z,9.00
2017-05-14T20:00:33.444Z,10.12
2017-05-14T20:03:02.516Z,9.20
2017-05-14T20:05:31.614Z,11.42
2017-05-14T20:08:00.666Z,11.66
2017-05-14T20:10:29.761Z,11.88
2017-05-14T20:12:59.549Z,15.52
2017-05-14T20:15:28.665Z,14.22
2017-05-14T20:17:58.465Z,14.50
2017-05-14T20:20:28.249Z,12.58
2017-05-14T20:22:57.306Z,15.74
2017-05-14T20:25:26.356Z,15.18
2017-05-14T20:27:55.413Z,15.50
2017-05-14T20:30:24.463Z,17.96
2017-05-14T20:32:53.575Z,15.38
2017-05-14T20:35:23.393Z,16.02
2017-05-14T20:37:53.403Z,15.32
2017-05-14T20:40:23.239Z,15.44
2017-05-14T20:42:52.316Z,15.08
2017-05-14T20:45:22.101Z,16.54
2017-05-14T20:47:51.164Z,16.30
2017-05-14T20:50:20.231Z,14.22
2017-05-14T20:52:49.308Z,17.44
2017-05-14T20:55:19.120Z,18.90
2017-05-14T20:57:48.934Z,20.50
2017-05-14T21:00:18.717Z,18.70
2017-05-14T21:02:47.787Z,15.82
2017-05-14T21:05:16.938Z,16.26
2017-05-14T21:07:46.844Z,19.92
2017-05-14T21:10:15.958Z,22.74
2017-05-14T21:12:45.870Z,22.22
2017-05-14T21:15:15.673Z,32.98
2017-05-14T21:17:45.499Z,37.70
2017-05-14T21:20:15.331Z,30.74
2017-05-14T21:22:44.477Z,24.72
2017-05-14T21:25:13.595Z,20.94
2017-05-14T21:27:43.507Z,20.58
2017-05-14T21:30:13.342Z,27.46
2017-05-14T21:32:42.417Z,27.26
2017-05-14T21:35:12.243Z,25.32
2017-05-14T21:37:42.038Z,25.64
2017-05-14T21:40:11.860Z,22.50
2017-05-14T21:42:41.665Z,20.68
2017-05-14T21:45:11.455Z,18.46
2017-05-14T21:47:40.522Z,20.76
2017-05-14T21:50:09.575Z,19.36
2017-05-14T21:52:39.466Z,21.26
2017-05-14T21:55:08.604Z,25.56
2017-05-14T21:57:37.671Z,22.38
2017-05-14T22:00:06.791Z,19.96
2017-05-14T22:02:35.873Z,20.78
2017-05-14T22:05:05.688Z,18.36
2017-05-14T22:07:35.555Z,17.28
2017-05-14T22:10:04.694Z,19.06
2017-05-14T22:12:34.530Z,18.84
2017-05-14T22:15:03.590Z,18.44
2017-05-14T22:17:33.628Z,17.92
2017-05-14T22:20:03.239Z,18.78
2017-05-14T22:22:33.151Z,18.72
2017-05-14T22:25:02.190Z,19.92
2017-05-14T22:27:31.293Z,20.14
2017-05-14T22:30:00.403Z,19.80
2017-05-14T22:32:30.194Z,20.30
2017-05-14T22:34:59.319Z,19.90
2017-05-14T22:37:29.223Z,20.66
2017-05-14T22:39:59.045Z,19.14
2017-05-14T22:42:28.951Z,19.78
2017-05-14T22:44:58.861Z,20.30
2017-05-14T22:47:27.965Z,18.78
2017-05-14T22:49:57.778Z,20.74
2017-05-14T22:52:27.587Z,21.28
2017-05-14T22:54:57.393Z,21.14
2017-05-14T22:57:26.490Z,20.50
2017-05-14T22:59:55.688Z,19.88
2017-05-14T23:02:24.753Z,20.96
2017-05-14T23:04:53.798Z,20.56
2017-05-14T23:07:23.704Z,18.14
2017-05-14T23:09:53.515Z,22.42
2017-05-14T23:12:23.326Z,20.60
2017-05-14T23:14:52.482Z,23.86
2017-05-14T23:17:21.645Z,22.96
2017-05-14T23:19:51.442Z,21.68
2017-05-14T23:22:20.541Z,21.10
2017-05-14T23:24:49.646Z,23.22
2017-05-14T23:27:18.729Z,24.28
2017-05-14T23:29:48.540Z,22.14
2017-05-14T23:32:18.357Z,21.82
2017-05-14T23:34:48.163Z,20.16
2017-05-14T23:37:17.987Z,22.46
2017-05-14T23:39:47.807Z,21.76
2017-05-14T23:42:16.862Z,26.50
2017-05-14T23:44:45.914Z,22.90
2017-05-14T23:47:15.095Z,22.00
2017-05-14T23:49:44.149Z,21.34
2017-05-14T23:52:13.316Z,22.22
2017-05-14T23:54:42.419Z,32.50
2017-05-14T23:57:12.221Z,22.44
2017-05-14T23:59:41.323Z,24.08
